New Paris, Indiana
Current Conditions -  °F | °C
As of 4:53 PM on Tuesday 25 Nov 2014 (Local Time) from KGSH Reporting Station
Overcast Overcast  
Wind Chill: 19°   Ceiling: 2200
Heat Index: 27°   Visibility: 10mi
Dew Point: 19°   Wind: 7mph
Humidity: 72%   Direction: 280°W
Pressure: 30.14"   Gusts: NA
Location:  41.5°N, 85.83°W
Report Text: KGSH 252153Z AUTO 28006KT 10SM OVC022 M03/M07 A3014 RMK AO2 SLPNO T10281072
Loading
Personal Weather Stations






























Interactive Weather Map New forecast layout! Learn more

10-Day Weather Forecast

Advertisements
Track Severe Weather on mobile